Love Boat — OT3861 — position and weather

sailwx.info

Track history (hours):
 
Tides and Currents Weather Stations Pressure Air Temp Water Temp Dewpoint Dewpoint Depression Visibility Wind Speed Wind Dir Waves Ship Positions

Love Boat

Last reported at 2017-May-27 22:59 UTC. Time now 2017-May-27 23:05 UTC.
Position N 50°41' E 007°11'.

Length 110 m; draft 2 m.

Type: Ship. MMSI: 205386190.

Date/timePositionNaut miles runAvg speedWind from/ knotsBaromVisibWave heightAir tempDewpointWater temp
2017-May-27 22:59N 50°41' E 007°11'3 4.4
2017-May-27 22:19N 50°43' E 007°08'1 4.3
2017-May-27 22:00N 50°44' E 007°07'2 4.4
2017-May-27 21:28N 50°46' E 007°04'3 4.4
2017-May-27 20:54N 50°48' E 007°02'2 3.8
2017-May-27 20:25N 50°49' E 007°00'2 3.0
2017-May-27 19:54N 50°51' E 006°60'2 4.3
2017-May-27 19:30N 50°52' E 007°02'2 2.5
2017-May-27 18:54N 50°54' E 007°01'2 3.9
2017-May-27 18:26N 50°54' E 006°59'2 4.9
2017-May-27 17:59N 50°57' E 006°58'11 3.7
2017-May-27 14:57N 51°07' E 006°52'3 2.4
2017-May-27 13:52N 51°09' E 006°48'2 4.1
2017-May-27 13:30N 51°10' E 006°48'2 4.0
2017-May-27 13:00N 51°11' E 006°45'2 4.5
2017-May-27 12:30N 51°13' E 006°44'1 2.5
2017-May-27 12:00N 51°13' E 006°46'2 4.1
2017-May-27 11:28N 51°15' E 006°45'7 3.1
2017-May-27 09:07N 51°22' E 006°43'1 5.0
2017-May-27 08:59N 51°23' E 006°43'2 4.6
2017-May-27 08:30N 51°25' E 006°44'2 4.6
2017-May-27 08:00N 51°27' E 006°43'2 4.5
2017-May-27 07:30N 51°29' E 006°41'2 4.7
2017-May-27 07:00N 51°31' E 006°43'3 5.1
2017-May-27 06:28N 51°32' E 006°41'2 4.7
2017-May-27 06:00N 51°35' E 006°40'3 4.9
2017-May-27 05:29N 51°34' E 006°36'3 5.8
2017-May-27 04:59N 51°37' E 006°35'2 4.8
2017-May-27 04:29N 51°39' E 006°35'3 5.4
2017-May-27 04:00N 51°40' E 006°31'3 4.9
2017-May-27 03:26N 51°42' E 006°28'2 5.4
2017-May-27 03:00N 51°43' E 006°25'2 4.9
2017-May-27 02:30N 51°45' E 006°25'3 5.8
2017-May-27 02:00N 51°46' E 006°20'3 6.0
2017-May-27 01:30N 51°48' E 006°18'3 6.0
2017-May-27 01:00N 51°50' E 006°14'3 5.5
2017-May-27 00:30N 51°51' E 006°09'3 6.0
2017-May-27 00:00N 51°51' E 006°05'3 6.2
2017-May-26 23:30N 51°53' E 006°00'2 4.9
2017-May-26 23:00N 51°52' E 005°57'2 4.7
2017-May-26 22:30N 51°52' E 005°53'2 4.6
2017-May-26 22:00N 51°52' E 005°49'3 6.1
2017-May-26 21:30N 51°53' E 005°45'3 6.1
2017-May-26 21:00N 51°54' E 005°40'3 6.2
2017-May-26 20:30N 51°54' E 005°35'3 5.7
2017-May-26 19:59N 51°53' E 005°30'8 5.8
2017-May-26 18:41N 51°58' E 005°20'1 4.2
2017-May-26 18:30N 51°58' E 005°19'2 3.6
2017-May-26 18:00N 51°59' E 005°17'4 8.4
2017-May-26 17:30N 52°01' E 005°10'4 8.1
2017-May-26 17:00N 52°03' E 005°06'7 7.8
2017-May-26 16:05N 52°10' E 004°60'1 7.5
2017-May-26 16:00N 52°10' E 004°60'3 5.3
2017-May-26 15:27N 52°13' E 005°00'4 8.0
2017-May-26 15:00N 52°17' E 005°01'4 7.4
2017-May-26 14:30N 52°20' E 005°00'7 6.5
2017-May-26 13:31N 52°25' E 004°52'4 7.9
2017-May-26 13:00N 52°26' E 004°46'4 8.2
2017-May-26 12:31N 52°28' E 004°40'2 5.0
2017-May-26 12:00N 52°28' E 004°36'0 0.9
2017-May-26 11:30N 52°28' E 004°36'0 0.5
2017-May-26 11:00N 52°28' E 004°36'0 0.0
2017-May-26 10:30N 52°28' E 004°36'0 0.1
2017-May-26 10:00N 52°28' E 004°36'0 0.0
2017-May-26 09:30N 52°28' E 004°36'0 0.0
2017-May-26 09:00N 52°28' E 004°36'0 0.0
2017-May-26 08:30N 52°28' E 004°36'0 0.0
2017-May-26 08:00N 52°28' E 004°36'0 0.2
2017-May-26 07:30N 52°28' E 004°36'0 0.3
2017-May-26 07:00N 52°28' E 004°36'0 0.0
2017-May-26 06:30N 52°28' E 004°36'0 0.0
2017-May-26 06:00N 52°28' E 004°37'0 0.0
2017-May-26 05:30N 52°28' E 004°37'0 0.0
2017-May-26 05:00N 52°28' E 004°37'0 0.0
2017-May-26 04:30N 52°28' E 004°37'0 0.0
2017-May-26 04:00N 52°28' E 004°36'0 0.2
2017-May-26 03:30N 52°28' E 004°36'0 1.0
2017-May-26 03:00N 52°28' E 004°36'0 1.0
2017-May-26 02:30N 52°28' E 004°37'0 0.7
2017-May-26 02:00N 52°28' E 004°37'0 0.2
2017-May-26 01:30N 52°28' E 004°37'0 0.0
2017-May-26 01:00N 52°28' E 004°37'0 0.0
2017-May-26 00:30N 52°28' E 004°37'0 0.0
2017-May-26 00:00N 52°28' E 004°37'0 0.0
2017-May-25 23:30N 52°28' E 004°37'0 0.0
2017-May-25 23:00N 52°28' E 004°37'0 0.0
2017-May-25 22:30N 52°28' E 004°37'0 0.0
2017-May-25 22:00N 52°28' E 004°37'0 0.0
2017-May-25 21:30N 52°28' E 004°37'0 0.0
2017-May-25 21:00N 52°28' E 004°37'0 0.0
2017-May-25 20:30N 52°28' E 004°37'0 0.0
2017-May-25 20:00N 52°28' E 004°37'0 0.0
2017-May-25 19:30N 52°28' E 004°37'0 0.0
2017-May-25 19:00N 52°28' E 004°37'0 0.0
2017-May-25 18:30N 52°28' E 004°37'0 0.0
2017-May-25 18:00N 52°28' E 004°37'0 0.0
2017-May-25 17:30N 52°28' E 004°37'0 0.0
2017-May-25 17:00N 52°28' E 004°37'0 0.0
2017-May-25 16:30N 52°28' E 004°37'0 0.0
2017-May-25 16:00N 52°28' E 004°37'0 0.0
2017-May-25 15:30N 52°28' E 004°37'0 0.0
2017-May-25 15:00N 52°28' E 004°37'0 0.0
2017-May-25 14:30N 52°28' E 004°37'0 0.0
2017-May-25 13:30N 52°28' E 004°37'0 0.0
2017-May-25 13:00N 52°28' E 004°37'0 0.0
2017-May-25 12:30N 52°28' E 004°37'0 0.0
2017-May-25 12:00N 52°28' E 004°37'0 0.0
2017-May-25 11:30N 52°28' E 004°37'0 0.0
2017-May-25 11:00N 52°28' E 004°37'0 0.0
2017-May-25 10:30N 52°28' E 004°37'0 0.0
2017-May-25 10:00N 52°28' E 004°37'0 0.0
2017-May-25 09:30N 52°28' E 004°37'0 0.0
2017-May-25 09:00N 52°28' E 004°37'0 0.9
2017-May-25 08:31N 52°28' E 004°37'4 8.3
2017-May-25 08:00N 52°26' E 004°43'5 9.3
2017-May-25 07:31N 52°25' E 004°51'4 7.1
2017-May-25 07:01N 52°23' E 004°55'3 5.8
2017-May-25 06:30N 52°21' E 004°59'4 8.2
2017-May-25 06:00N 52°17' E 005°01'8 8.6
2017-May-25 05:05N 52°09' E 004°60'1 8.4
2017-May-25 04:59N 52°09' E 005°01'4 7.6
2017-May-25 04:30N 52°06' E 005°05'4 8.2
2017-May-25 04:00N 52°02' E 005°07'7 7.9
2017-May-25 03:10N 51°59' E 005°16'1 8.0
2017-May-25 03:01N 51°58' E 005°18'0 0.6
2017-May-25 02:30N 51°58' E 005°19'0 0.0
2017-May-25 02:01N 51°58' E 005°19'0 0.0
2017-May-25 01:31N 51°58' E 005°19'0 0.0
2017-May-25 01:01N 51°58' E 005°19'0 0.0
2017-May-25 00:31N 51°58' E 005°19'0 0.0
2017-May-25 00:01N 51°58' E 005°19'0 0.0
2017-May-24 23:31N 51°58' E 005°19'0 0.0
2017-May-24 23:00N 51°58' E 005°19'0 0.0
2017-May-24 22:30N 51°58' E 005°19'0 0.0
2017-May-24 22:01N 51°58' E 005°19'0 0.0
2017-May-24 21:31N 51°58' E 005°19'0 0.0
2017-May-24 21:01N 51°58' E 005°19'0 0.5
2017-May-24 20:17N 51°58' E 005°19'11 3.0
2017-May-24 16:41N 51°49' E 005°27'0 1.7
2017-May-24 16:30N 51°49' E 005°28'3 5.3
2017-May-24 15:55N 51°48' E 005°33'1 2.5
2017-May-24 15:30N 51°47' E 005°33'0 0.0
2017-May-24 15:00N 51°47' E 005°33'0 0.0
2017-May-24 14:31N 51°47' E 005°33'0 0.0
2017-May-24 13:30N 51°47' E 005°33'0 0.0
2017-May-24 13:00N 51°47' E 005°33'0 0.0
2017-May-24 12:30N 51°47' E 005°33'0 0.0
2017-May-24 12:01N 51°47' E 005°33'0 0.0
2017-May-24 11:30N 51°47' E 005°33'0 0.0
2017-May-24 11:01N 51°47' E 005°33'0 0.0
2017-May-24 10:30N 51°47' E 005°33'0 0.0
2017-May-24 10:01N 51°47' E 005°33'0 0.0
2017-May-24 09:30N 51°47' E 005°33'0 0.0
2017-May-24 09:01N 51°47' E 005°33'0 0.0
2017-May-24 08:30N 51°47' E 005°33'0 0.0
2017-May-24 08:00N 51°47' E 005°33'0 0.0
2017-May-24 07:29N 51°47' E 005°33'0 0.0
2017-May-24 07:00N 51°47' E 005°33'0 0.0
2017-May-24 06:31N 51°47' E 005°33'0 0.0
2017-May-24 05:51N 51°47' E 005°33'0 0.0
2017-May-24 05:31N 51°47' E 005°33'0 0.0
2017-May-24 05:00N 51°47' E 005°33'0 0.0
2017-May-24 04:31N 51°47' E 005°33'0 0.0
2017-May-24 04:01N 51°47' E 005°33'0 0.0
2017-May-24 03:30N 51°47' E 005°33'0 0.0
2017-May-24 03:01N 51°47' E 005°33'0 0.0
2017-May-24 02:31N 51°47' E 005°33'0 0.0
2017-May-24 02:01N 51°47' E 005°33'0 0.0
2017-May-24 01:30N 51°47' E 005°33'0 0.0
2017-May-24 01:01N 51°47' E 005°33'0 0.0
2017-May-24 00:31N 51°47' E 005°33'0 0.0
2017-May-24 00:00N 51°47' E 005°33'0 0.0
2017-May-23 23:30N 51°47' E 005°33'0 0.0
2017-May-23 23:01N 51°47' E 005°33'0 0.0
2017-May-23 22:30N 51°47' E 005°33'0 0.0
2017-May-23 22:01N 51°47' E 005°33'0 0.0
2017-May-23 21:31N 51°47' E 005°33'0 0.0
2017-May-23 21:01N 51°47' E 005°33'0 0.0
2017-May-23 20:31N 51°47' E 005°33'0 0.0
2017-May-23 20:00N 51°47' E 005°33'0 0.0
2017-May-23 19:30N 51°47' E 005°33'0 0.0
2017-May-23 19:01N 51°47' E 005°33'0 0.0
2017-May-23 18:31N 51°47' E 005°33'0 0.0
2017-May-23 18:00N 51°47' E 005°33'0 0.0
2017-May-23 17:31N 51°47' E 005°33'0 0.0
2017-May-23 17:01N 51°47' E 005°33'0 0.0
2017-May-23 16:31N 51°47' E 005°33'0 0.0
2017-May-23 16:01N 51°47' E 005°33'0 0.0
2017-May-23 15:31N 51°47' E 005°33'0 0.0
2017-May-23 15:01N 51°47' E 005°33'0 0.0
2017-May-23 14:30N 51°47' E 005°33'0 0.0
2017-May-23 13:30N 51°47' E 005°33'0 0.0
2017-May-23 13:00N 51°47' E 005°33'0 0.0
2017-May-23 12:30N 51°47' E 005°33'0 0.0
2017-May-23 12:01N 51°47' E 005°33'0 0.5
2017-May-23 11:30N 51°47' E 005°33'0 0.0
2017-May-22 08:14N 51°48' E 005°33'1 1.8
2017-May-22 07:49N 51°48' E 005°33'1 2.1
2017-May-22 07:30N 51°49' E 005°33'3 5.8
2017-May-22 07:00N 51°49' E 005°37'3 6.3
2017-May-22 06:31N 51°47' E 005°42'2 3.4
2017-May-22 05:53N 51°46' E 005°44'0 0.1
2017-May-22 05:28N 51°46' E 005°44'2 4.9
2017-May-22 05:00N 51°45' E 005°48'2 4.1
2017-May-22 04:29N 51°46' E 005°51'3 5.4
2017-May-22 04:00N 51°48' E 005°49'3 5.1
2017-May-22 03:30N 51°51' E 005°49'0 0.0
2017-May-22 03:00N 51°51' E 005°49'0 0.0
2017-May-22 02:31N 51°51' E 005°49'0 0.0
2017-May-22 02:00N 51°51' E 005°49'0 0.0
2017-May-22 01:31N 51°51' E 005°49'0 0.0
2017-May-22 01:00N 51°51' E 005°49'0 0.0
2017-May-22 00:30N 51°51' E 005°49'0 0.0
2017-May-22 00:01N 51°51' E 005°49'0 0.0
2017-May-21 23:30N 51°51' E 005°49'0 0.0
2017-May-21 23:01N 51°51' E 005°49'0 0.0
2017-May-21 22:31N 51°51' E 005°49'0 0.0
2017-May-21 22:01N 51°51' E 005°49'0 0.0
2017-May-21 21:30N 51°51' E 005°49'0 0.0
2017-May-21 21:01N 51°51' E 005°49'0 0.0
2017-May-21 20:31N 51°51' E 005°49'0 0.9
2017-May-21 20:01N 51°51' E 005°49'2 4.1
2017-May-21 19:30N 51°51' E 005°53'3 7.0
2017-May-21 19:01N 51°51' E 005°58'4 7.1
2017-May-21 18:31N 51°52' E 006°04'5 9.1
2017-May-21 18:01N 51°50' E 006°11'5 9.2
2017-May-21 17:31N 51°49' E 006°18'4 8.7
2017-May-21 17:00N 51°45' E 006°22'3 6.5
2017-May-21 16:30N 51°43' E 006°25'4 8.5
2017-May-21 15:59N 51°40' E 006°31'4 7.3
2017-May-21 15:30N 51°38' E 006°36'4 5.9
2017-May-21 14:49N 51°35' E 006°40'5 6.7
2017-May-21 14:01N 51°29' E 006°41'4 7.4
2017-May-21 13:31N 51°26' E 006°43'4 7.2
2017-May-21 13:01N 51°22' E 006°41'8 6.9
2017-May-21 11:53N 51°15' E 006°45'2 4.7
2017-May-21 11:31N 51°14' E 006°43'4 7.3
2017-May-21 11:01N 51°11' E 006°48'15 7.0
2017-May-21 08:49N 50°58' E 006°59'3 8.5
2017-May-21 08:30N 50°55' E 006°58'4 6.0
2017-May-21 07:50N 50°51' E 007°00'2 5.5
2017-May-21 07:30N 50°49' E 007°01'5 9.2
2017-May-21 07:00N 50°46' E 007°05'5 9.1
2017-May-21 06:28N 50°42' E 007°10'  
Track history (hours):
 
Tides and Currents Weather Stations Pressure Air Temp Water Temp Dewpoint Dewpoint Depression Visibility Wind Speed Wind Dir Waves Ship Positions

Love Boat

Last reported at 2017-May-27 22:59 UTC. Time now 2017-May-27 23:05 UTC.
Position N 50°41' E 007°11'.

Length 110 m; draft 2 m.

Type: Ship. MMSI: 205386190.

Date/timePositionNaut miles runAvg speedWind from/ knotsBaromVisibWave heightAir tempDewpointWater temp
2017-May-27 22:59N 50°41' E 007°11'3 4.4
2017-May-27 22:19N 50°43' E 007°08'1 4.3
2017-May-27 22:00N 50°44' E 007°07'2 4.4
2017-May-27 21:28N 50°46' E 007°04'3 4.4
2017-May-27 20:54N 50°48' E 007°02'2 3.8
2017-May-27 20:25N 50°49' E 007°00'2 3.0
2017-May-27 19:54N 50°51' E 006°60'2 4.3
2017-May-27 19:30N 50°52' E 007°02'2 2.5
2017-May-27 18:54N 50°54' E 007°01'2 3.9
2017-May-27 18:26N 50°54' E 006°59'2 4.9
2017-May-27 17:59N 50°57' E 006°58'11 3.7
2017-May-27 14:57N 51°07' E 006°52'3 2.4
2017-May-27 13:52N 51°09' E 006°48'2 4.1
2017-May-27 13:30N 51°10' E 006°48'2 4.0
2017-May-27 13:00N 51°11' E 006°45'2 4.5
2017-May-27 12:30N 51°13' E 006°44'1 2.5
2017-May-27 12:00N 51°13' E 006°46'2 4.1
2017-May-27 11:28N 51°15' E 006°45'7 3.1
2017-May-27 09:07N 51°22' E 006°43'1 5.0
2017-May-27 08:59N 51°23' E 006°43'2 4.6
2017-May-27 08:30N 51°25' E 006°44'2 4.6
2017-May-27 08:00N 51°27' E 006°43'2 4.5
2017-May-27 07:30N 51°29' E 006°41'2 4.7
2017-May-27 07:00N 51°31' E 006°43'3 5.1
2017-May-27 06:28N 51°32' E 006°41'2 4.7
2017-May-27 06:00N 51°35' E 006°40'3 4.9
2017-May-27 05:29N 51°34' E 006°36'3 5.8
2017-May-27 04:59N 51°37' E 006°35'2 4.8
2017-May-27 04:29N 51°39' E 006°35'3 5.4
2017-May-27 04:00N 51°40' E 006°31'3 4.9
2017-May-27 03:26N 51°42' E 006°28'2 5.4
2017-May-27 03:00N 51°43' E 006°25'2 4.9
2017-May-27 02:30N 51°45' E 006°25'3 5.8
2017-May-27 02:00N 51°46' E 006°20'3 6.0
2017-May-27 01:30N 51°48' E 006°18'3 6.0
2017-May-27 01:00N 51°50' E 006°14'3 5.5
2017-May-27 00:30N 51°51' E 006°09'3 6.0
2017-May-27 00:00N 51°51' E 006°05'3 6.2
2017-May-26 23:30N 51°53' E 006°00'2 4.9
2017-May-26 23:00N 51°52' E 005°57'2 4.7
2017-May-26 22:30N 51°52' E 005°53'2 4.6
2017-May-26 22:00N 51°52' E 005°49'3 6.1
2017-May-26 21:30N 51°53' E 005°45'3 6.1
2017-May-26 21:00N 51°54' E 005°40'3 6.2
2017-May-26 20:30N 51°54' E 005°35'3 5.7
2017-May-26 19:59N 51°53' E 005°30'8 5.8
2017-May-26 18:41N 51°58' E 005°20'1 4.2
2017-May-26 18:30N 51°58' E 005°19'2 3.6
2017-May-26 18:00N 51°59' E 005°17'4 8.4
2017-May-26 17:30N 52°01' E 005°10'4 8.1
2017-May-26 17:00N 52°03' E 005°06'7 7.8
2017-May-26 16:05N 52°10' E 004°60'1 7.5
2017-May-26 16:00N 52°10' E 004°60'3 5.3
2017-May-26 15:27N 52°13' E 005°00'4 8.0
2017-May-26 15:00N 52°17' E 005°01'4 7.4
2017-May-26 14:30N 52°20' E 005°00'7 6.5
2017-May-26 13:31N 52°25' E 004°52'4 7.9
2017-May-26 13:00N 52°26' E 004°46'4 8.2
2017-May-26 12:31N 52°28' E 004°40'2 5.0
2017-May-26 12:00N 52°28' E 004°36'0 0.9
2017-May-26 11:30N 52°28' E 004°36'0 0.5
2017-May-26 11:00N 52°28' E 004°36'0 0.0
2017-May-26 10:30N 52°28' E 004°36'0 0.1
2017-May-26 10:00N 52°28' E 004°36'0 0.0
2017-May-26 09:30N 52°28' E 004°36'0 0.0
2017-May-26 09:00N 52°28' E 004°36'0 0.0
2017-May-26 08:30N 52°28' E 004°36'0 0.0
2017-May-26 08:00N 52°28' E 004°36'0 0.2
2017-May-26 07:30N 52°28' E 004°36'0 0.3
2017-May-26 07:00N 52°28' E 004°36'0 0.0
2017-May-26 06:30N 52°28' E 004°36'0 0.0
2017-May-26 06:00N 52°28' E 004°37'0 0.0
2017-May-26 05:30N 52°28' E 004°37'0 0.0
2017-May-26 05:00N 52°28' E 004°37'0 0.0
2017-May-26 04:30N 52°28' E 004°37'0 0.0
2017-May-26 04:00N 52°28' E 004°36'0 0.2
2017-May-26 03:30N 52°28' E 004°36'0 1.0
2017-May-26 03:00N 52°28' E 004°36'0 1.0
2017-May-26 02:30N 52°28' E 004°37'0 0.7
2017-May-26 02:00N 52°28' E 004°37'0 0.2
2017-May-26 01:30N 52°28' E 004°37'0 0.0
2017-May-26 01:00N 52°28' E 004°37'0 0.0
2017-May-26 00:30N 52°28' E 004°37'0 0.0
2017-May-26 00:00N 52°28' E 004°37'0 0.0
2017-May-25 23:30N 52°28' E 004°37'0 0.0
2017-May-25 23:00N 52°28' E 004°37'0 0.0
2017-May-25 22:30N 52°28' E 004°37'0 0.0
2017-May-25 22:00N 52°28' E 004°37'0 0.0
2017-May-25 21:30N 52°28' E 004°37'0 0.0
2017-May-25 21:00N 52°28' E 004°37'0 0.0
2017-May-25 20:30N 52°28' E 004°37'0 0.0
2017-May-25 20:00N 52°28' E 004°37'0 0.0
2017-May-25 19:30N 52°28' E 004°37'0 0.0
2017-May-25 19:00N 52°28' E 004°37'0 0.0
2017-May-25 18:30N 52°28' E 004°37'0 0.0
2017-May-25 18:00N 52°28' E 004°37'0 0.0
2017-May-25 17:30N 52°28' E 004°37'0 0.0
2017-May-25 17:00N 52°28' E 004°37'0 0.0
2017-May-25 16:30N 52°28' E 004°37'0 0.0
2017-May-25 16:00N 52°28' E 004°37'0 0.0
2017-May-25 15:30N 52°28' E 004°37'0 0.0
2017-May-25 15:00N 52°28' E 004°37'0 0.0
2017-May-25 14:30N 52°28' E 004°37'0 0.0
2017-May-25 13:30N 52°28' E 004°37'0 0.0
2017-May-25 13:00N 52°28' E 004°37'0 0.0
2017-May-25 12:30N 52°28' E 004°37'0 0.0
2017-May-25 12:00N 52°28' E 004°37'0 0.0
2017-May-25 11:30N 52°28' E 004°37'0 0.0
2017-May-25 11:00N 52°28' E 004°37'0 0.0
2017-May-25 10:30N 52°28' E 004°37'0 0.0
2017-May-25 10:00N 52°28' E 004°37'0 0.0
2017-May-25 09:30N 52°28' E 004°37'0 0.0
2017-May-25 09:00N 52°28' E 004°37'0 0.9
2017-May-25 08:31N 52°28' E 004°37'4 8.3
2017-May-25 08:00N 52°26' E 004°43'5 9.3
2017-May-25 07:31N 52°25' E 004°51'4 7.1
2017-May-25 07:01N 52°23' E 004°55'3 5.8
2017-May-25 06:30N 52°21' E 004°59'4 8.2
2017-May-25 06:00N 52°17' E 005°01'8 8.6
2017-May-25 05:05N 52°09' E 004°60'1 8.4
2017-May-25 04:59N 52°09' E 005°01'4 7.6
2017-May-25 04:30N 52°06' E 005°05'4 8.2
2017-May-25 04:00N 52°02' E 005°07'7 7.9
2017-May-25 03:10N 51°59' E 005°16'1 8.0
2017-May-25 03:01N 51°58' E 005°18'0 0.6
2017-May-25 02:30N 51°58' E 005°19'0 0.0
2017-May-25 02:01N 51°58' E 005°19'0 0.0
2017-May-25 01:31N 51°58' E 005°19'0 0.0
2017-May-25 01:01N 51°58' E 005°19'0 0.0
2017-May-25 00:31N 51°58' E 005°19'0 0.0
2017-May-25 00:01N 51°58' E 005°19'0 0.0
2017-May-24 23:31N 51°58' E 005°19'0 0.0
2017-May-24 23:00N 51°58' E 005°19'0 0.0
2017-May-24 22:30N 51°58' E 005°19'0 0.0
2017-May-24 22:01N 51°58' E 005°19'0 0.0
2017-May-24 21:31N 51°58' E 005°19'0 0.0
2017-May-24 21:01N 51°58' E 005°19'0 0.5
2017-May-24 20:17N 51°58' E 005°19'11 3.0
2017-May-24 16:41N 51°49' E 005°27'0 1.7
2017-May-24 16:30N 51°49' E 005°28'3 5.3
2017-May-24 15:55N 51°48' E 005°33'1 2.5
2017-May-24 15:30N 51°47' E 005°33'0 0.0
2017-May-24 15:00N 51°47' E 005°33'0 0.0
2017-May-24 14:31N 51°47' E 005°33'0 0.0
2017-May-24 13:30N 51°47' E 005°33'0 0.0
2017-May-24 13:00N 51°47' E 005°33'0 0.0
2017-May-24 12:30N 51°47' E 005°33'0 0.0
2017-May-24 12:01N 51°47' E 005°33'0 0.0
2017-May-24 11:30N 51°47' E 005°33'0 0.0
2017-May-24 11:01N 51°47' E 005°33'0 0.0
2017-May-24 10:30N 51°47' E 005°33'0 0.0
2017-May-24 10:01N 51°47' E 005°33'0 0.0
2017-May-24 09:30N 51°47' E 005°33'0 0.0
2017-May-24 09:01N 51°47' E 005°33'0 0.0
2017-May-24 08:30N 51°47' E 005°33'0 0.0
2017-May-24 08:00N 51°47' E 005°33'0 0.0
2017-May-24 07:29N 51°47' E 005°33'0 0.0
2017-May-24 07:00N 51°47' E 005°33'0 0.0
2017-May-24 06:31N 51°47' E 005°33'0 0.0
2017-May-24 05:51N 51°47' E 005°33'0 0.0
2017-May-24 05:31N 51°47' E 005°33'0 0.0
2017-May-24 05:00N 51°47' E 005°33'0 0.0
2017-May-24 04:31N 51°47' E 005°33'0 0.0
2017-May-24 04:01N 51°47' E 005°33'0 0.0
2017-May-24 03:30N 51°47' E 005°33'0 0.0
2017-May-24 03:01N 51°47' E 005°33'0 0.0
2017-May-24 02:31N 51°47' E 005°33'0 0.0
2017-May-24 02:01N 51°47' E 005°33'0 0.0
2017-May-24 01:30N 51°47' E 005°33'0 0.0
2017-May-24 01:01N 51°47' E 005°33'0 0.0
2017-May-24 00:31N 51°47' E 005°33'0 0.0
2017-May-24 00:00N 51°47' E 005°33'0 0.0
2017-May-23 23:30N 51°47' E 005°33'0 0.0
2017-May-23 23:01N 51°47' E 005°33'0 0.0
2017-May-23 22:30N 51°47' E 005°33'0 0.0
2017-May-23 22:01N 51°47' E 005°33'0 0.0
2017-May-23 21:31N 51°47' E 005°33'0 0.0
2017-May-23 21:01N 51°47' E 005°33'0 0.0
2017-May-23 20:31N 51°47' E 005°33'0 0.0
2017-May-23 20:00N 51°47' E 005°33'0 0.0
2017-May-23 19:30N 51°47' E 005°33'0 0.0
2017-May-23 19:01N 51°47' E 005°33'0 0.0
2017-May-23 18:31N 51°47' E 005°33'0 0.0
2017-May-23 18:00N 51°47' E 005°33'0 0.0
2017-May-23 17:31N 51°47' E 005°33'0 0.0
2017-May-23 17:01N 51°47' E 005°33'0 0.0
2017-May-23 16:31N 51°47' E 005°33'0 0.0
2017-May-23 16:01N 51°47' E 005°33'0 0.0
2017-May-23 15:31N 51°47' E 005°33'0 0.0
2017-May-23 15:01N 51°47' E 005°33'0 0.0
2017-May-23 14:30N 51°47' E 005°33'0 0.0
2017-May-23 13:30N 51°47' E 005°33'0 0.0
2017-May-23 13:00N 51°47' E 005°33'0 0.0
2017-May-23 12:30N 51°47' E 005°33'0 0.0
2017-May-23 12:01N 51°47' E 005°33'0 0.5
2017-May-23 11:30N 51°47' E 005°33'0 0.0
2017-May-22 08:14N 51°48' E 005°33'1 1.8
2017-May-22 07:49N 51°48' E 005°33'1 2.1
2017-May-22 07:30N 51°49' E 005°33'3 5.8
2017-May-22 07:00N 51°49' E 005°37'3 6.3
2017-May-22 06:31N 51°47' E 005°42'2 3.4
2017-May-22 05:53N 51°46' E 005°44'0 0.1
2017-May-22 05:28N 51°46' E 005°44'2 4.9
2017-May-22 05:00N 51°45' E 005°48'2 4.1
2017-May-22 04:29N 51°46' E 005°51'3 5.4
2017-May-22 04:00N 51°48' E 005°49'3 5.1
2017-May-22 03:30N 51°51' E 005°49'0 0.0
2017-May-22 03:00N 51°51' E 005°49'0 0.0
2017-May-22 02:31N 51°51' E 005°49'0 0.0
2017-May-22 02:00N 51°51' E 005°49'0 0.0
2017-May-22 01:31N 51°51' E 005°49'0 0.0
2017-May-22 01:00N 51°51' E 005°49'0 0.0
2017-May-22 00:30N 51°51' E 005°49'0 0.0
2017-May-22 00:01N 51°51' E 005°49'0 0.0
2017-May-21 23:30N 51°51' E 005°49'0 0.0
2017-May-21 23:01N 51°51' E 005°49'0 0.0
2017-May-21 22:31N 51°51' E 005°49'0 0.0
2017-May-21 22:01N 51°51' E 005°49'0 0.0
2017-May-21 21:30N 51°51' E 005°49'0 0.0
2017-May-21 21:01N 51°51' E 005°49'0 0.0
2017-May-21 20:31N 51°51' E 005°49'0 0.9
2017-May-21 20:01N 51°51' E 005°49'2 4.1
2017-May-21 19:30N 51°51' E 005°53'3 7.0
2017-May-21 19:01N 51°51' E 005°58'4 7.1
2017-May-21 18:31N 51°52' E 006°04'5 9.1
2017-May-21 18:01N 51°50' E 006°11'5 9.2
2017-May-21 17:31N 51°49' E 006°18'4 8.7
2017-May-21 17:00N 51°45' E 006°22'3 6.5
2017-May-21 16:30N 51°43' E 006°25'4 8.5
2017-May-21 15:59N 51°40' E 006°31'4 7.3
2017-May-21 15:30N 51°38' E 006°36'4 5.9
2017-May-21 14:49N 51°35' E 006°40'5 6.7
2017-May-21 14:01N 51°29' E 006°41'4 7.4
2017-May-21 13:31N 51°26' E 006°43'4 7.2
2017-May-21 13:01N 51°22' E 006°41'8 6.9
2017-May-21 11:53N 51°15' E 006°45'2 4.7
2017-May-21 11:31N 51°14' E 006°43'4 7.3
2017-May-21 11:01N 51°11' E 006°48'15 7.0
2017-May-21 08:49N 50°58' E 006°59'3 8.5
2017-May-21 08:30N 50°55' E 006°58'4 6.0
2017-May-21 07:50N 50°51' E 007°00'2 5.5
2017-May-21 07:30N 50°49' E 007°01'5 9.2
2017-May-21 07:00N 50°46' E 007°05'5 9.1
2017-May-21 06:28N 50°42' E 007°10'  

Dump ship's entire track history